sensor_id;sensor_type;location;lat;lon;timestamp;noise_LAeq;noise_LA_min;noise_LA_max;noise_LA01;noise_LA95
45964;Laerm;31671;48.092;11.842;2023-01-20T00:01:46;29.71;28.21;30.78;;
45964;Laerm;31671;48.092;11.842;2023-01-20T00:04:11;29.66;28.28;30.83;;
45964;Laerm;31671;48.092;11.842;2023-01-20T00:06:37;29.71;28.44;30.74;;
45964;Laerm;31671;48.092;11.842;2023-01-20T00:09:03;29.74;28.27;31.04;;
45964;Laerm;31671;48.092;11.842;2023-01-20T00:11:29;29.74;28.26;31.74;;
45964;Laerm;31671;48.092;11.842;2023-01-20T00:13:56;29.64;28.33;31.24;;
45964;Laerm;31671;48.092;11.842;2023-01-20T00:16:22;30.06;28.47;33.03;;
45964;Laerm;31671;48.092;11.842;2023-01-20T00:18:48;29.71;28.48;31.13;;
45964;Laerm;31671;48.092;11.842;2023-01-20T00:21:14;29.61;28.34;30.69;;
45964;Laerm;31671;48.092;11.842;2023-01-20T00:23:40;29.73;28.37;30.79;;
45964;Laerm;31671;48.092;11.842;2023-01-20T00:26:06;29.64;28.36;31.02;;
45964;Laerm;31671;48.092;11.842;2023-01-20T00:28:33;29.71;28.34;30.81;;
45964;Laerm;31671;48.092;11.842;2023-01-20T00:31:08;29.77;28.53;30.97;;
45964;Laerm;31671;48.092;11.842;2023-01-20T00:33:34;29.74;28.19;31.36;;
45964;Laerm;31671;48.092;11.842;2023-01-20T00:36:00;29.63;28.32;30.93;;
45964;Laerm;31671;48.092;11.842;2023-01-20T00:38:25;29.67;28.38;30.78;;
45964;Laerm;31671;48.092;11.842;2023-01-20T00:40:52;29.98;28.48;35.29;;
45964;Laerm;31671;48.092;11.842;2023-01-20T00:43:18;29.86;28.25;32.79;;
45964;Laerm;31671;48.092;11.842;2023-01-20T00:45:43;29.62;28.37;30.77;;
45964;Laerm;31671;48.092;11.842;2023-01-20T00:48:09;29.73;28.47;30.93;;
45964;Laerm;31671;48.092;11.842;2023-01-20T00:50:35;29.69;28.43;31.02;;
45964;Laerm;31671;48.092;11.842;2023-01-20T00:53:00;29.66;28.45;30.91;;
45964;Laerm;31671;48.092;11.842;2023-01-20T00:55:26;29.64;28.22;30.83;;
45964;Laerm;31671;48.092;11.842;2023-01-20T00:57:52;29.66;28.40;30.98;;
45964;Laerm;31671;48.092;11.842;2023-01-20T01:00:18;29.75;28.36;32.90;;
45964;Laerm;31671;48.092;11.842;2023-01-20T01:02:43;29.66;28.24;30.99;;
45964;Laerm;31671;48.092;11.842;2023-01-20T01:05:09;29.65;28.38;32.58;;
45964;Laerm;31671;48.092;11.842;2023-01-20T01:07:35;29.61;28.26;30.78;;
45964;Laerm;31671;48.092;11.842;2023-01-20T01:10:00;29.62;28.22;30.85;;
45964;Laerm;31671;48.092;11.842;2023-01-20T01:12:26;29.53;28.28;30.75;;
45964;Laerm;31671;48.092;11.842;2023-01-20T01:14:52;29.51;28.26;30.82;;
45964;Laerm;31671;48.092;11.842;2023-01-20T01:17:18;29.50;28.02;31.36;;
45964;Laerm;31671;48.092;11.842;2023-01-20T01:19:43;29.48;28.23;30.59;;
45964;Laerm;31671;48.092;11.842;2023-01-20T01:22:09;30.02;27.97;39.23;;
45964;Laerm;31671;48.092;11.842;2023-01-20T01:24:35;29.42;27.97;30.62;;
45964;Laerm;31671;48.092;11.842;2023-01-20T01:27:00;29.59;28.13;33.20;;
45964;Laerm;31671;48.092;11.842;2023-01-20T01:29:26;29.82;28.24;36.01;;
45964;Laerm;31671;48.092;11.842;2023-01-20T01:31:52;29.49;28.20;33.31;;
45964;Laerm;31671;48.092;11.842;2023-01-20T01:34:18;29.37;28.09;30.57;;
45964;Laerm;31671;48.092;11.842;2023-01-20T01:36:43;29.36;27.97;30.77;;
45964;Laerm;31671;48.092;11.842;2023-01-20T01:39:09;29.71;27.94;35.19;;
45964;Laerm;31671;48.092;11.842;2023-01-20T01:41:35;29.49;28.23;30.74;;
45964;Laerm;31671;48.092;11.842;2023-01-20T01:44:02;29.67;28.07;32.01;;
45964;Laerm;31671;48.092;11.842;2023-01-20T01:46:28;29.69;28.11;32.75;;
45964;Laerm;31671;48.092;11.842;2023-01-20T01:48:54;29.38;28.04;30.73;;
45964;Laerm;31671;48.092;11.842;2023-01-20T01:51:25;29.49;28.00;32.33;;
45964;Laerm;31671;48.092;11.842;2023-01-20T01:53:56;29.61;28.08;32.28;;
45964;Laerm;31671;48.092;11.842;2023-01-20T01:56:24;29.45;28.14;30.96;;
45964;Laerm;31671;48.092;11.842;2023-01-20T01:58:52;29.71;28.08;34.75;;
45964;Laerm;31671;48.092;11.842;2023-01-20T02:01:18;29.90;28.12;37.64;;
45964;Laerm;31671;48.092;11.842;2023-01-20T02:03:55;29.36;28.19;30.86;;
45964;Laerm;31671;48.092;11.842;2023-01-20T02:06:23;29.45;28.18;30.57;;
45964;Laerm;31671;48.092;11.842;2023-01-20T02:08:50;29.43;28.27;30.77;;
45964;Laerm;31671;48.092;11.842;2023-01-20T02:11:16;29.41;27.85;30.49;;
45964;Laerm;31671;48.092;11.842;2023-01-20T02:13:42;29.44;28.08;34.04;;
45964;Laerm;31671;48.092;11.842;2023-01-20T02:18:49;29.33;27.98;30.63;;
45964;Laerm;31671;48.092;11.842;2023-01-20T02:31:52;29.43;28.16;30.74;;
45964;Laerm;31671;48.092;11.842;2023-01-20T02:36:59;29.35;28.05;30.63;;
45964;Laerm;31671;48.092;11.842;2023-01-20T02:42:11;30.46;27.95;38.43;;
45964;Laerm;31671;48.092;11.842;2023-01-20T02:49:35;29.38;28.06;30.79;;
45964;Laerm;31671;48.092;11.842;2023-01-20T02:52:11;29.37;28.10;30.61;;
45964;Laerm;31671;48.092;11.842;2023-01-20T02:54:39;29.29;28.04;30.71;;
45964;Laerm;31671;48.092;11.842;2023-01-20T02:57:07;29.38;27.99;30.92;;
45964;Laerm;31671;48.092;11.842;2023-01-20T02:59:35;29.35;27.95;30.61;;
45964;Laerm;31671;48.092;11.842;2023-01-20T03:02:02;29.36;28.10;30.47;;
45964;Laerm;31671;48.092;11.842;2023-01-20T03:04:32;29.45;28.11;30.56;;
45964;Laerm;31671;48.092;11.842;2023-01-20T03:06:58;29.36;27.86;30.43;;
45964;Laerm;31671;48.092;11.842;2023-01-20T03:09:27;29.42;28.15;30.71;;
45964;Laerm;31671;48.092;11.842;2023-01-20T03:11:55;29.36;28.04;30.60;;
45964;Laerm;31671;48.092;11.842;2023-01-20T03:14:23;29.30;28.01;30.39;;
45964;Laerm;31671;48.092;11.842;2023-01-20T03:16:48;29.38;27.92;30.76;;
45964;Laerm;31671;48.092;11.842;2023-01-20T03:19:15;29.31;27.97;30.46;;
45964;Laerm;31671;48.092;11.842;2023-01-20T03:21:41;29.40;27.85;30.59;;
45964;Laerm;31671;48.092;11.842;2023-01-20T03:24:07;29.37;28.08;30.83;;
45964;Laerm;31671;48.092;11.842;2023-01-20T03:26:33;29.36;28.04;30.61;;
45964;Laerm;31671;48.092;11.842;2023-01-20T03:29:06;29.41;27.93;31.73;;
45964;Laerm;31671;48.092;11.842;2023-01-20T03:31:34;29.36;28.14;30.86;;
45964;Laerm;31671;48.092;11.842;2023-01-20T03:34:02;29.42;28.18;30.72;;
45964;Laerm;31671;48.092;11.842;2023-01-20T03:36:28;29.44;27.59;31.02;;
45964;Laerm;31671;48.092;11.842;2023-01-20T03:38:55;29.42;28.21;30.78;;
45964;Laerm;31671;48.092;11.842;2023-01-20T03:44:08;29.40;28.19;30.93;;
45964;Laerm;31671;48.092;11.842;2023-01-20T03:46:45;29.39;28.08;30.76;;
45964;Laerm;31671;48.092;11.842;2023-01-20T03:49:19;29.53;28.04;32.25;;
45964;Laerm;31671;48.092;11.842;2023-01-20T03:52:02;29.97;28.06;36.73;;
45964;Laerm;31671;48.092;11.842;2023-01-20T03:54:33;29.33;27.79;30.61;;
45964;Laerm;31671;48.092;11.842;2023-01-20T03:57:09;29.41;28.10;30.81;;
45964;Laerm;31671;48.092;11.842;2023-01-20T03:59:37;29.49;27.81;32.64;;
45964;Laerm;31671;48.092;11.842;2023-01-20T04:02:05;30.03;28.17;34.53;;
45964;Laerm;31671;48.092;11.842;2023-01-20T04:04:35;29.43;28.02;30.61;;
45964;Laerm;31671;48.092;11.842;2023-01-20T04:07:04;30.39;28.03;38.75;;
45964;Laerm;31671;48.092;11.842;2023-01-20T04:09:30;29.37;28.09;30.61;;
45964;Laerm;31671;48.092;11.842;2023-01-20T04:11:58;29.73;27.92;33.54;;
45964;Laerm;31671;48.092;11.842;2023-01-20T04:14:24;29.44;28.15;30.86;;
45964;Laerm;31671;48.092;11.842;2023-01-20T04:16:56;29.59;28.13;31.78;;
45964;Laerm;31671;48.092;11.842;2023-01-20T04:19:22;29.57;28.14;32.11;;
45964;Laerm;31671;48.092;11.842;2023-01-20T04:21:48;30.01;28.26;34.72;;
45964;Laerm;31671;48.092;11.842;2023-01-20T04:26:48;29.58;28.08;31.99;;
45964;Laerm;31671;48.092;11.842;2023-01-20T04:29:13;29.59;28.37;31.04;;
45964;Laerm;31671;48.092;11.842;2023-01-20T04:31:39;29.58;28.09;31.82;;
45964;Laerm;31671;48.092;11.842;2023-01-20T04:34:06;29.80;28.14;34.21;;
45964;Laerm;31671;48.092;11.842;2023-01-20T04:36:32;29.66;28.16;33.81;;
45964;Laerm;31671;48.092;11.842;2023-01-20T04:38:57;29.67;28.38;31.51;;
45964;Laerm;31671;48.092;11.842;2023-01-20T04:41:23;29.73;28.59;31.27;;
45964;Laerm;31671;48.092;11.842;2023-01-20T04:43:49;29.78;28.44;32.36;;
45964;Laerm;31671;48.092;11.842;2023-01-20T04:46:15;29.68;28.35;31.98;;
45964;Laerm;31671;48.092;11.842;2023-01-20T04:48:42;29.69;28.29;31.51;;
45964;Laerm;31671;48.092;11.842;2023-01-20T04:51:08;29.83;28.59;32.58;;
45964;Laerm;31671;48.092;11.842;2023-01-20T04:53:34;29.93;28.48;32.67;;
45964;Laerm;31671;48.092;11.842;2023-01-20T04:55:59;29.70;28.38;33.45;;
45964;Laerm;31671;48.092;11.842;2023-01-20T04:58:25;30.00;28.60;34.47;;
45964;Laerm;31671;48.092;11.842;2023-01-20T05:00:51;29.91;28.43;31.92;;
45964;Laerm;31671;48.092;11.842;2023-01-20T05:03:17;30.03;28.47;32.85;;
45964;Laerm;31671;48.092;11.842;2023-01-20T05:05:43;29.92;28.29;34.94;;
45964;Laerm;31671;48.092;11.842;2023-01-20T05:08:08;29.83;28.58;33.08;;
45964;Laerm;31671;48.092;11.842;2023-01-20T05:10:34;30.04;28.67;39.67;;
45964;Laerm;31671;48.092;11.842;2023-01-20T05:13:00;29.91;28.39;31.15;;
45964;Laerm;31671;48.092;11.842;2023-01-20T05:15:26;29.91;28.64;31.22;;
45964;Laerm;31671;48.092;11.842;2023-01-20T05:17:52;29.99;28.60;31.89;;
45964;Laerm;31671;48.092;11.842;2023-01-20T05:20:18;29.81;28.62;31.97;;
45964;Laerm;31671;48.092;11.842;2023-01-20T05:22:44;29.89;28.57;31.59;;
45964;Laerm;31671;48.092;11.842;2023-01-20T05:25:09;29.81;28.48;32.21;;
45964;Laerm;31671;48.092;11.842;2023-01-20T05:27:35;29.87;28.57;31.54;;
45964;Laerm;31671;48.092;11.842;2023-01-20T05:30:02;30.16;28.57;32.39;;
45964;Laerm;31671;48.092;11.842;2023-01-20T05:32:28;30.11;28.23;36.67;;
45964;Laerm;31671;48.092;11.842;2023-01-20T05:34:54;29.86;28.58;31.31;;
45964;Laerm;31671;48.092;11.842;2023-01-20T05:37:19;29.94;28.54;34.22;;
45964;Laerm;31671;48.092;11.842;2023-01-20T05:39:45;29.97;28.08;34.86;;
45964;Laerm;31671;48.092;11.842;2023-01-20T05:42:11;29.90;28.59;31.90;;
45964;Laerm;31671;48.092;11.842;2023-01-20T05:44:36;30.22;28.49;34.60;;
45964;Laerm;31671;48.092;11.842;2023-01-20T05:47:02;29.94;28.69;31.75;;
45964;Laerm;31671;48.092;11.842;2023-01-20T05:49:28;29.86;28.29;34.69;;
45964;Laerm;31671;48.092;11.842;2023-01-20T05:51:53;29.98;28.66;31.90;;
45964;Laerm;31671;48.092;11.842;2023-01-20T05:54:20;29.84;28.33;31.97;;
45964;Laerm;31671;48.092;11.842;2023-01-20T05:56:48;29.83;28.32;31.50;;
45964;Laerm;31671;48.092;11.842;2023-01-20T05:59:14;29.80;28.43;31.25;;
45964;Laerm;31671;48.092;11.842;2023-01-20T06:01:40;29.85;28.47;31.13;;
45964;Laerm;31671;48.092;11.842;2023-01-20T06:04:05;29.98;28.74;31.80;;
45964;Laerm;31671;48.092;11.842;2023-01-20T06:06:31;29.88;28.62;31.82;;
45964;Laerm;31671;48.092;11.842;2023-01-20T06:08:57;29.83;28.52;31.14;;
45964;Laerm;31671;48.092;11.842;2023-01-20T06:11:22;29.94;28.53;32.25;;
45964;Laerm;31671;48.092;11.842;2023-01-20T06:13:48;30.19;28.56;33.20;;
45964;Laerm;31671;48.092;11.842;2023-01-20T06:16:15;29.83;28.54;31.50;;
45964;Laerm;31671;48.092;11.842;2023-01-20T06:18:41;29.77;28.42;31.75;;
45964;Laerm;31671;48.092;11.842;2023-01-20T06:21:07;29.81;28.48;31.29;;
45964;Laerm;31671;48.092;11.842;2023-01-20T06:23:33;29.86;28.36;32.93;;
45964;Laerm;31671;48.092;11.842;2023-01-20T06:26:05;29.83;28.57;31.61;;
45964;Laerm;31671;48.092;11.842;2023-01-20T06:28:31;29.79;28.44;32.86;;
45964;Laerm;31671;48.092;11.842;2023-01-20T06:31:04;29.81;28.43;37.39;;
45964;Laerm;31671;48.092;11.842;2023-01-20T06:33:31;29.82;28.50;33.85;;
45964;Laerm;31671;48.092;11.842;2023-01-20T06:35:57;29.88;28.26;32.32;;
45964;Laerm;31671;48.092;11.842;2023-01-20T06:38:23;30.28;28.51;34.39;;
45964;Laerm;31671;48.092;11.842;2023-01-20T06:40:49;29.75;28.25;31.75;;
45964;Laerm;31671;48.092;11.842;2023-01-20T06:43:15;29.72;28.35;31.74;;
45964;Laerm;31671;48.092;11.842;2023-01-20T06:45:40;29.66;28.33;32.21;;
45964;Laerm;31671;48.092;11.842;2023-01-20T06:48:06;30.00;28.47;40.57;;
45964;Laerm;31671;48.092;11.842;2023-01-20T06:50:32;29.86;28.38;32.01;;
45964;Laerm;31671;48.092;11.842;2023-01-20T06:52:58;29.68;28.48;32.53;;
45964;Laerm;31671;48.092;11.842;2023-01-20T06:55:23;29.79;28.28;31.67;;
45964;Laerm;31671;48.092;11.842;2023-01-20T06:57:49;29.79;28.19;31.71;;
45964;Laerm;31671;48.092;11.842;2023-01-20T07:00:15;29.77;28.45;31.57;;
45964;Laerm;31671;48.092;11.842;2023-01-20T07:02:41;29.72;28.32;31.42;;
45964;Laerm;31671;48.092;11.842;2023-01-20T07:05:07;29.78;27.97;32.03;;
45964;Laerm;31671;48.092;11.842;2023-01-20T07:07:33;29.69;28.22;31.02;;
45964;Laerm;31671;48.092;11.842;2023-01-20T07:09:59;29.76;28.30;31.25;;
45964;Laerm;31671;48.092;11.842;2023-01-20T07:12:25;29.69;28.22;31.47;;
45964;Laerm;31671;48.092;11.842;2023-01-20T07:14:51;29.72;28.18;31.56;;
45964;Laerm;31671;48.092;11.842;2023-01-20T07:17:17;29.67;28.20;31.39;;
45964;Laerm;31671;48.092;11.842;2023-01-20T07:19:42;29.63;28.04;31.07;;
45964;Laerm;31671;48.092;11.842;2023-01-20T07:22:08;29.94;28.43;32.10;;
45964;Laerm;31671;48.092;11.842;2023-01-20T07:24:34;29.73;28.37;31.50;;
45964;Laerm;31671;48.092;11.842;2023-01-20T07:26:59;29.64;28.48;31.82;;
45964;Laerm;31671;48.092;11.842;2023-01-20T07:29:25;29.96;28.40;33.19;;
45964;Laerm;31671;48.092;11.842;2023-01-20T07:31:51;29.77;28.37;31.76;;
45964;Laerm;31671;48.092;11.842;2023-01-20T07:34:17;29.79;28.55;31.45;;
45964;Laerm;31671;48.092;11.842;2023-01-20T07:36:42;29.75;28.46;31.79;;
45964;Laerm;31671;48.092;11.842;2023-01-20T07:39:09;29.73;28.41;31.60;;
45964;Laerm;31671;48.092;11.842;2023-01-20T07:41:35;29.80;28.34;31.73;;
45964;Laerm;31671;48.092;11.842;2023-01-20T07:44:00;29.81;28.44;33.10;;
45964;Laerm;31671;48.092;11.842;2023-01-20T07:46:26;29.94;28.39;38.20;;
45964;Laerm;31671;48.092;11.842;2023-01-20T07:48:52;29.92;28.56;32.58;;
45964;Laerm;31671;48.092;11.842;2023-01-20T07:51:18;29.91;28.30;33.25;;
45964;Laerm;31671;48.092;11.842;2023-01-20T07:53:44;29.62;28.45;31.51;;
45964;Laerm;31671;48.092;11.842;2023-01-20T07:56:10;30.15;28.37;33.48;;
45964;Laerm;31671;48.092;11.842;2023-01-20T07:58:36;29.69;28.38;31.40;;
45964;Laerm;31671;48.092;11.842;2023-01-20T08:01:12;30.15;28.53;40.98;;
45964;Laerm;31671;48.092;11.842;2023-01-20T08:03:38;29.73;28.40;34.86;;
45964;Laerm;31671;48.092;11.842;2023-01-20T08:06:05;29.76;28.29;31.57;;
45964;Laerm;31671;48.092;11.842;2023-01-20T08:08:31;29.82;28.44;32.69;;
45964;Laerm;31671;48.092;11.842;2023-01-20T08:10:57;29.95;28.48;34.97;;
45964;Laerm;31671;48.092;11.842;2023-01-20T08:13:22;29.83;28.58;31.70;;
45964;Laerm;31671;48.092;11.842;2023-01-20T08:15:48;29.87;28.48;31.61;;
45964;Laerm;31671;48.092;11.842;2023-01-20T08:18:14;29.87;28.45;31.57;;
45964;Laerm;31671;48.092;11.842;2023-01-20T08:20:40;29.96;28.46;36.45;;
45964;Laerm;31671;48.092;11.842;2023-01-20T08:23:06;29.79;28.30;31.49;;
45964;Laerm;31671;48.092;11.842;2023-01-20T08:25:31;29.80;28.51;32.04;;
45964;Laerm;31671;48.092;11.842;2023-01-20T08:27:57;30.17;28.61;38.58;;
45964;Laerm;31671;48.092;11.842;2023-01-20T08:30:23;30.21;28.40;42.17;;
45964;Laerm;31671;48.092;11.842;2023-01-20T08:32:48;29.93;27.93;31.82;;
45964;Laerm;31671;48.092;11.842;2023-01-20T08:35:14;29.92;28.50;31.97;;
45964;Laerm;31671;48.092;11.842;2023-01-20T08:37:40;29.92;28.57;38.49;;
45964;Laerm;31671;48.092;11.842;2023-01-20T08:40:06;29.90;28.52;31.56;;
45964;Laerm;31671;48.092;11.842;2023-01-20T08:42:32;29.88;28.61;31.20;;
45964;Laerm;31671;48.092;11.842;2023-01-20T08:44:58;29.80;28.56;31.67;;
45964;Laerm;31671;48.092;11.842;2023-01-20T08:47:24;30.14;28.62;42.72;;
45964;Laerm;31671;48.092;11.842;2023-01-20T08:49:51;29.85;28.27;31.39;;
45964;Laerm;31671;48.092;11.842;2023-01-20T08:52:16;29.88;28.60;31.79;;
45964;Laerm;31671;48.092;11.842;2023-01-20T08:54:42;29.81;28.44;32.20;;
45964;Laerm;31671;48.092;11.842;2023-01-20T08:57:08;30.02;28.42;45.00;;
45964;Laerm;31671;48.092;11.842;2023-01-20T08:59:34;29.80;28.35;31.76;;
45964;Laerm;31671;48.092;11.842;2023-01-20T09:01:59;29.80;28.41;31.14;;
45964;Laerm;31671;48.092;11.842;2023-01-20T09:04:25;29.81;28.18;36.87;;
45964;Laerm;31671;48.092;11.842;2023-01-20T09:06:51;29.88;28.11;32.39;;
45964;Laerm;31671;48.092;11.842;2023-01-20T09:09:17;29.85;28.42;32.22;;
45964;Laerm;31671;48.092;11.842;2023-01-20T09:11:43;30.10;28.51;34.17;;
45964;Laerm;31671;48.092;11.842;2023-01-20T09:14:09;30.01;28.48;32.90;;
45964;Laerm;31671;48.092;11.842;2023-01-20T09:16:35;30.12;28.51;34.32;;
45964;Laerm;31671;48.092;11.842;2023-01-20T09:19:01;29.89;28.31;33.49;;
45964;Laerm;31671;48.092;11.842;2023-01-20T09:21:26;29.85;28.50;31.42;;
45964;Laerm;31671;48.092;11.842;2023-01-20T09:23:52;29.97;28.66;35.18;;
45964;Laerm;31671;48.092;11.842;2023-01-20T09:26:18;29.98;28.35;31.40;;
45964;Laerm;31671;48.092;11.842;2023-01-20T09:28:43;29.94;28.54;38.61;;
45964;Laerm;31671;48.092;11.842;2023-01-20T09:31:09;30.30;28.38;34.78;;
45964;Laerm;31671;48.092;11.842;2023-01-20T09:33:36;29.92;28.65;31.36;;
45964;Laerm;31671;48.092;11.842;2023-01-20T09:36:02;30.00;28.73;33.25;;
45964;Laerm;31671;48.092;11.842;2023-01-20T09:38:28;29.99;28.60;32.03;;
45964;Laerm;31671;48.092;11.842;2023-01-20T09:51:01;30.17;28.63;32.95;;
45964;Laerm;31671;48.092;11.842;2023-01-20T09:56:00;30.08;28.76;32.00;;
45964;Laerm;31671;48.092;11.842;2023-01-20T10:01:01;30.16;28.75;32.55;;
45964;Laerm;31671;48.092;11.842;2023-01-20T10:05:57;30.16;28.68;32.53;;
45964;Laerm;31671;48.092;11.842;2023-01-20T10:08:27;30.05;28.80;34.85;;
45964;Laerm;31671;48.092;11.842;2023-01-20T10:11:07;32.99;28.81;43.29;;
45964;Laerm;31671;48.092;11.842;2023-01-20T10:16:04;30.12;28.64;31.57;;
45964;Laerm;31671;48.092;11.842;2023-01-20T10:18:42;30.11;28.79;32.00;;
45964;Laerm;31671;48.092;11.842;2023-01-20T10:24:09;30.20;28.80;32.54;;
45964;Laerm;31671;48.092;11.842;2023-01-20T10:26:51;30.23;28.85;42.02;;
45964;Laerm;31671;48.092;11.842;2023-01-20T10:29:25;30.24;28.61;32.15;;
45964;Laerm;31671;48.092;11.842;2023-01-20T10:31:57;30.38;28.92;36.18;;
45964;Laerm;31671;48.092;11.842;2023-01-20T10:34:23;30.45;28.89;34.64;;
45964;Laerm;31671;48.092;11.842;2023-01-20T10:36:57;30.50;29.09;35.66;;
45964;Laerm;31671;48.092;11.842;2023-01-20T10:39:27;30.28;29.02;35.69;;
45964;Laerm;31671;48.092;11.842;2023-01-20T10:41:56;30.84;29.27;35.26;;
45964;Laerm;31671;48.092;11.842;2023-01-20T10:44:24;30.41;29.02;32.29;;
45964;Laerm;31671;48.092;11.842;2023-01-20T10:47:00;30.41;29.15;32.01;;
45964;Laerm;31671;48.092;11.842;2023-01-20T10:52:13;30.72;29.06;35.07;;
45964;Laerm;31671;48.092;11.842;2023-01-20T10:57:09;30.50;28.79;35.18;;
45964;Laerm;31671;48.092;11.842;2023-01-20T10:59:44;30.50;29.04;35.29;;
45964;Laerm;31671;48.092;11.842;2023-01-20T11:02:14;30.39;29.10;32.27;;
45964;Laerm;31671;48.092;11.842;2023-01-20T11:04:41;30.43;29.11;32.84;;
45964;Laerm;31671;48.092;11.842;2023-01-20T11:07:10;30.46;29.04;38.60;;
45964;Laerm;31671;48.092;11.842;2023-01-20T11:09:37;30.42;28.97;32.91;;
45964;Laerm;31671;48.092;11.842;2023-01-20T11:12:05;30.37;29.00;32.06;;
45964;Laerm;31671;48.092;11.842;2023-01-20T11:14:34;30.31;28.83;32.00;;
45964;Laerm;31671;48.092;11.842;2023-01-20T11:17:06;30.34;29.03;36.73;;
45964;Laerm;31671;48.092;11.842;2023-01-20T11:22:21;30.53;29.01;33.18;;
45964;Laerm;31671;48.092;11.842;2023-01-20T11:24:48;30.42;28.96;32.28;;
45964;Laerm;31671;48.092;11.842;2023-01-20T11:27:19;30.49;29.06;33.46;;
45964;Laerm;31671;48.092;11.842;2023-01-20T11:29:49;30.32;29.02;33.42;;
45964;Laerm;31671;48.092;11.842;2023-01-20T11:32:22;30.39;29.06;33.68;;
45964;Laerm;31671;48.092;11.842;2023-01-20T11:34:48;30.26;28.99;31.53;;
45964;Laerm;31671;48.092;11.842;2023-01-20T11:37:15;30.57;29.07;34.75;;
45964;Laerm;31671;48.092;11.842;2023-01-20T11:44:43;31.28;29.22;39.13;;
45964;Laerm;31671;48.092;11.842;2023-01-20T11:47:23;30.50;28.85;42.93;;
45964;Laerm;31671;48.092;11.842;2023-01-20T11:55:09;30.39;28.91;33.99;;
45964;Laerm;31671;48.092;11.842;2023-01-20T11:57:37;30.41;29.03;40.90;;
45964;Laerm;31671;48.092;11.842;2023-01-20T12:00:26;30.37;29.12;32.69;;
45964;Laerm;31671;48.092;11.842;2023-01-20T12:02:59;30.29;29.00;32.19;;
45964;Laerm;31671;48.092;11.842;2023-01-20T12:05:33;30.19;28.74;32.30;;
45964;Laerm;31671;48.092;11.842;2023-01-20T12:08:02;30.18;28.72;33.94;;
45964;Laerm;31671;48.092;11.842;2023-01-20T12:10:29;30.18;28.68;32.61;;
45964;Laerm;31671;48.092;11.842;2023-01-20T12:12:58;30.22;28.68;33.56;;
45964;Laerm;31671;48.092;11.842;2023-01-20T12:15:28;30.04;28.66;37.20;;
45964;Laerm;31671;48.092;11.842;2023-01-20T12:17:57;29.94;28.69;31.96;;
45964;Laerm;31671;48.092;11.842;2023-01-20T12:20:27;30.13;28.70;33.54;;
45964;Laerm;31671;48.092;11.842;2023-01-20T12:23:00;30.14;28.77;35.35;;
45964;Laerm;31671;48.092;11.842;2023-01-20T12:25:30;30.60;29.21;33.89;;
45964;Laerm;31671;48.092;11.842;2023-01-20T12:28:09;30.77;29.56;34.26;;
45964;Laerm;31671;48.092;11.842;2023-01-20T12:33:19;30.92;29.42;37.02;;
45964;Laerm;31671;48.092;11.842;2023-01-20T12:35:52;30.94;29.31;37.93;;
45964;Laerm;31671;48.092;11.842;2023-01-20T12:38:22;31.01;29.27;41.12;;
45964;Laerm;31671;48.092;11.842;2023-01-20T12:40:50;30.78;29.42;38.48;;
45964;Laerm;31671;48.092;11.842;2023-01-20T12:54:15;30.65;29.26;42.24;;
45964;Laerm;31671;48.092;11.842;2023-01-20T13:02:03;30.59;29.30;34.17;;
45964;Laerm;31671;48.092;11.842;2023-01-20T13:14:48;30.33;29.02;32.10;;
45964;Laerm;31671;48.092;11.842;2023-01-20T13:19:46;30.43;28.87;42.41;;
45964;Laerm;31671;48.092;11.842;2023-01-20T13:22:20;30.39;28.90;32.47;;
45964;Laerm;31671;48.092;11.842;2023-01-20T13:24:46;30.43;29.10;34.01;;
45964;Laerm;31671;48.092;11.842;2023-01-20T13:27:13;30.37;29.03;32.25;;
45964;Laerm;31671;48.092;11.842;2023-01-20T13:29:40;30.47;28.88;33.30;;
45964;Laerm;31671;48.092;11.842;2023-01-20T13:34:51;30.55;29.13;49.61;;
45964;Laerm;31671;48.092;11.842;2023-01-20T13:37:29;30.37;28.92;32.70;;
45964;Laerm;31671;48.092;11.842;2023-01-20T13:39:56;30.30;28.86;35.91;;
45964;Laerm;31671;48.092;11.842;2023-01-20T13:42:25;30.63;28.87;33.66;;
45964;Laerm;31671;48.092;11.842;2023-01-20T13:45:08;30.45;29.12;32.67;;
45964;Laerm;31671;48.092;11.842;2023-01-20T13:50:24;30.35;28.87;32.31;;
45964;Laerm;31671;48.092;11.842;2023-01-20T13:55:29;30.24;28.97;32.75;;
45964;Laerm;31671;48.092;11.842;2023-01-20T13:57:55;30.33;28.98;36.40;;
45964;Laerm;31671;48.092;11.842;2023-01-20T14:00:21;30.28;28.52;31.86;;
45964;Laerm;31671;48.092;11.842;2023-01-20T14:02:47;30.29;28.85;32.32;;
45964;Laerm;31671;48.092;11.842;2023-01-20T14:05:20;30.51;28.82;35.53;;
45964;Laerm;31671;48.092;11.842;2023-01-20T14:07:46;31.11;28.77;38.69;;
45964;Laerm;31671;48.092;11.842;2023-01-20T14:10:11;30.23;28.81;32.34;;
45964;Laerm;31671;48.092;11.842;2023-01-20T14:12:40;30.14;28.86;32.98;;
45964;Laerm;31671;48.092;11.842;2023-01-20T14:15:06;32.57;28.64;55.56;;
45964;Laerm;31671;48.092;11.842;2023-01-20T14:17:32;29.94;28.46;31.79;;
45964;Laerm;31671;48.092;11.842;2023-01-20T14:19:58;29.91;28.49;31.97;;
45964;Laerm;31671;48.092;11.842;2023-01-20T14:24:50;29.98;28.41;32.71;;
45964;Laerm;31671;48.092;11.842;2023-01-20T14:29:42;30.75;28.56;40.19;;
45964;Laerm;31671;48.092;11.842;2023-01-20T14:34:52;29.86;28.50;31.96;;
45964;Laerm;31671;48.092;11.842;2023-01-20T14:37:22;29.88;28.29;35.80;;
45964;Laerm;31671;48.092;11.842;2023-01-20T14:39:49;29.94;28.25;40.90;;
45964;Laerm;31671;48.092;11.842;2023-01-20T14:42:17;29.86;28.37;32.27;;
45964;Laerm;31671;48.092;11.842;2023-01-20T14:44:42;29.91;28.46;33.20;;
45964;Laerm;31671;48.092;11.842;2023-01-20T14:47:10;29.76;28.15;31.98;;
45964;Laerm;31671;48.092;11.842;2023-01-20T14:49:37;29.95;28.40;33.18;;
45964;Laerm;31671;48.092;11.842;2023-01-20T14:52:03;30.11;28.64;33.97;;
45964;Laerm;31671;48.092;11.842;2023-01-20T14:56:58;29.99;28.41;33.52;;
45964;Laerm;31671;48.092;11.842;2023-01-20T14:59:24;29.83;28.32;32.03;;
45964;Laerm;31671;48.092;11.842;2023-01-20T15:01:54;29.79;28.26;31.83;;
45964;Laerm;31671;48.092;11.842;2023-01-20T15:04:21;30.38;28.43;36.24;;
45964;Laerm;31671;48.092;11.842;2023-01-20T15:06:50;29.93;28.37;37.49;;
45964;Laerm;31671;48.092;11.842;2023-01-20T15:09:26;30.05;28.28;33.88;;
45964;Laerm;31671;48.092;11.842;2023-01-20T15:12:29;29.84;28.62;32.18;;
45964;Laerm;31671;48.092;11.842;2023-01-20T15:14:38;29.87;28.31;35.72;;
45964;Laerm;31671;48.092;11.842;2023-01-20T15:17:07;29.82;27.95;37.63;;
45964;Laerm;31671;48.092;11.842;2023-01-20T15:19:33;30.13;28.37;34.51;;
45964;Laerm;31671;48.092;11.842;2023-01-20T15:22:14;29.96;28.46;32.86;;
45964;Laerm;31671;48.092;11.842;2023-01-20T15:24:41;29.77;28.15;32.39;;
45964;Laerm;31671;48.092;11.842;2023-01-20T15:32:24;29.77;28.53;37.81;;
45964;Laerm;31671;48.092;11.842;2023-01-20T15:34:49;29.70;28.23;31.81;;
45964;Laerm;31671;48.092;11.842;2023-01-20T15:37:16;29.57;28.18;32.74;;
45964;Laerm;31671;48.092;11.842;2023-01-20T15:39:43;29.52;28.27;32.74;;